Risingdale, Massachusetts
Current Conditions -  °F | °C
As of 11:05 PM on Sunday 23 Nov 2014 (Local Time) from KPSF Reporting Station
Broken Clouds Broken Clouds  
Wind Chill:   Ceiling: 2700
Heat Index:   Visibility: 8mi
Dew Point:   Wind: 0mph
Humidity: 92%   Direction: NA
Pressure: 30.02"   Gusts: NA
Location:  42.1779°N, 73.3332°W
Report Text: KPSF 240405Z AUTO 00000KT 8SM BKN027 02/01 A3002 RMK AO2 T00170006
Loading
Personal Weather Stations






























Interactive Weather Map New forecast layout! Learn more

10-Day Weather Forecast

Advertisements
Track Severe Weather on mobile